createdAt,value
2022-11-13T00:01:13.468Z,19.20
2022-11-13T00:04:01.196Z,17.63
2022-11-13T00:06:47.540Z,16.90
2022-11-13T00:09:33.855Z,16.90
2022-11-13T00:12:20.246Z,15.97
2022-11-13T00:15:07.643Z,15.70
2022-11-13T00:17:54.871Z,16.37
2022-11-13T00:20:42.738Z,16.60
2022-11-13T00:23:29.264Z,16.57
2022-11-13T00:26:17.441Z,16.83
2022-11-13T00:29:04.835Z,16.27
2022-11-13T00:31:51.061Z,16.27
2022-11-13T00:34:53.061Z,16.00
2022-11-13T00:37:41.019Z,15.83
2022-11-13T00:40:27.336Z,15.70
2022-11-13T00:43:13.570Z,15.00
2022-11-13T00:46:00.140Z,16.70
2022-11-13T00:48:46.378Z,15.30
2022-11-13T00:51:33.368Z,14.57
2022-11-13T00:54:21.471Z,15.07
2022-11-13T00:57:07.919Z,16.00
2022-11-13T00:59:54.575Z,16.63
2022-11-13T01:02:41.154Z,16.20
2022-11-13T01:05:27.857Z,14.63
2022-11-13T01:08:15.783Z,15.07
2022-11-13T01:11:10.019Z,15.07
2022-11-13T01:13:56.547Z,14.20
2022-11-13T01:16:42.857Z,14.93
2022-11-13T01:19:29.331Z,14.40
2022-11-13T01:22:15.980Z,14.17
2022-11-13T01:25:02.467Z,14.70
2022-11-13T01:27:49.783Z,14.40
2022-11-13T01:30:36.263Z,13.67
2022-11-13T01:33:22.781Z,14.07
2022-11-13T01:36:12.066Z,13.33
2022-11-13T01:38:58.974Z,14.37
2022-11-13T01:41:45.379Z,13.93
2022-11-13T01:47:25.343Z,13.33
2022-11-13T01:50:15.688Z,13.40
2022-11-13T01:53:02.287Z,13.13
2022-11-13T01:55:49.183Z,13.67
2022-11-13T01:58:36.279Z,13.70
2022-11-13T02:01:22.776Z,14.27
2022-11-13T02:04:10.528Z,13.97
2022-11-13T02:06:59.432Z,14.00
2022-11-13T02:09:49.234Z,16.17
2022-11-13T02:12:40.229Z,21.47
2022-11-13T02:15:29.727Z,18.80
2022-11-13T02:18:17.967Z,18.67
2022-11-13T02:21:14.344Z,17.90
2022-11-13T02:24:14.599Z,17.47
2022-11-13T02:27:05.521Z,17.80
2022-11-13T02:29:51.964Z,18.27
2022-11-13T02:32:43.959Z,18.57
2022-11-13T02:35:32.957Z,16.27
2022-11-13T02:38:19.523Z,17.20
2022-11-13T02:41:07.176Z,18.47
2022-11-13T02:43:53.628Z,19.47
2022-11-13T02:46:39.999Z,22.50
2022-11-13T02:49:26.454Z,18.03
2022-11-13T02:52:12.853Z,18.30
2022-11-13T02:54:59.048Z,19.03
2022-11-13T02:57:46.542Z,18.23
2022-11-13T03:00:33.184Z,18.13
2022-11-13T03:03:41.049Z,13.87
2022-11-13T03:06:25.514Z,13.83
2022-11-13T03:09:11.717Z,12.47
2022-11-13T03:11:58.285Z,13.83
2022-11-13T03:14:45.969Z,14.83
2022-11-13T03:17:32.641Z,13.63
2022-11-13T03:20:18.990Z,12.67
2022-11-13T03:23:05.116Z,11.50
2022-11-13T03:25:51.366Z,11.33
2022-11-13T03:28:38.674Z,10.80
2022-11-13T03:31:26.444Z,12.07
2022-11-13T03:34:12.998Z,11.80
2022-11-13T03:36:59.403Z,11.60
2022-11-13T03:39:45.731Z,12.07
2022-11-13T03:42:32.136Z,10.90
2022-11-13T03:45:18.878Z,11.20
2022-11-13T03:48:06.978Z,11.03
2022-11-13T03:50:55.679Z,11.30
2022-11-13T03:53:42.181Z,11.93
2022-11-13T03:56:29.323Z,12.77
2022-11-13T03:59:15.526Z,11.50
2022-11-13T04:02:02.056Z,12.27
2022-11-13T04:04:49.638Z,11.60
2022-11-13T04:07:36.242Z,14.10
2022-11-13T04:10:22.582Z,19.20
2022-11-13T04:13:09.415Z,12.27
2022-11-13T04:15:55.963Z,10.77
2022-11-13T04:18:53.829Z,9.97
2022-11-13T04:21:41.546Z,10.13
2022-11-13T04:24:27.957Z,10.17
2022-11-13T04:27:14.333Z,9.97
2022-11-13T04:30:00.781Z,10.60
2022-11-13T04:32:47.215Z,10.97
2022-11-13T04:35:33.955Z,10.37
2022-11-13T04:38:21.804Z,10.47
2022-11-13T04:41:26.280Z,11.10
2022-11-13T04:44:12.921Z,10.10
2022-11-13T04:46:59.458Z,10.77
2022-11-13T04:49:45.631Z,11.53
2022-11-13T04:52:32.074Z,11.50
2022-11-13T04:55:20.149Z,10.93
2022-11-13T04:58:06.343Z,11.13
2022-11-13T05:00:52.580Z,11.07
2022-11-13T05:03:39.400Z,10.67
2022-11-13T05:06:25.547Z,10.13
2022-11-13T05:09:12.700Z,10.50
2022-11-13T05:12:00.347Z,10.87
2022-11-13T05:14:46.904Z,10.13
2022-11-13T05:17:33.081Z,11.17
2022-11-13T05:20:19.696Z,10.37
2022-11-13T05:23:05.823Z,10.30
2022-11-13T05:25:52.476Z,10.33
2022-11-13T05:28:40.586Z,11.87
2022-11-13T05:31:27.521Z,11.43
2022-11-13T05:34:13.775Z,10.90
2022-11-13T05:37:00.228Z,10.63
2022-11-13T05:39:46.331Z,11.30
2022-11-13T05:42:32.579Z,11.37
2022-11-13T05:45:20.345Z,17.77
2022-11-13T05:48:07.204Z,10.53
2022-11-13T05:50:53.501Z,10.50
2022-11-13T05:53:40.484Z,10.30
2022-11-13T05:56:27.863Z,10.30
2022-11-13T05:59:14.292Z,10.80
2022-11-13T06:02:02.507Z,11.10
2022-11-13T06:04:50.661Z,11.40
2022-11-13T06:07:38.200Z,10.40
2022-11-13T06:10:24.583Z,10.50
2022-11-13T06:13:10.947Z,9.43
2022-11-13T06:16:02.028Z,9.90
2022-11-13T06:18:50.615Z,9.40
2022-11-13T06:21:39.825Z,9.43
2022-11-13T06:24:26.125Z,9.83
2022-11-13T06:27:12.271Z,9.30
2022-11-13T06:29:58.475Z,9.47
2022-11-13T06:32:45.121Z,10.17
2022-11-13T06:35:33.262Z,9.97
2022-11-13T06:38:19.756Z,9.30
2022-11-13T06:41:07.392Z,9.63
2022-11-13T06:43:57.433Z,9.53
2022-11-13T06:46:46.544Z,9.23
2022-11-13T06:49:32.928Z,10.17
2022-11-13T06:52:20.783Z,9.67
2022-11-13T06:55:07.811Z,9.90
2022-11-13T06:57:55.312Z,9.90
2022-11-13T07:00:42.318Z,10.23
2022-11-13T07:03:29.259Z,10.03
2022-11-13T07:06:17.827Z,9.97
2022-11-13T07:09:05.511Z,10.50
2022-11-13T07:11:51.887Z,9.57
2022-11-13T07:14:38.205Z,10.67
2022-11-13T07:17:24.534Z,10.30
2022-11-13T07:20:11.796Z,10.23
2022-11-13T07:22:58.984Z,11.67
2022-11-13T07:25:46.516Z,15.97
2022-11-13T07:28:33.262Z,24.50
2022-11-13T07:31:20.750Z,10.37
2022-11-13T07:34:07.464Z,8.53
2022-11-13T07:36:54.087Z,8.90
2022-11-13T07:39:40.603Z,9.50
2022-11-13T07:42:28.452Z,8.63
2022-11-13T07:45:14.751Z,9.03
2022-11-13T07:48:01.673Z,8.90
2022-11-13T07:50:48.849Z,11.10
2022-11-13T07:53:35.880Z,16.13
2022-11-13T07:56:23.421Z,28.77
2022-11-13T07:59:11.236Z,29.63
2022-11-13T08:01:57.590Z,49.60
2022-11-13T08:04:44.067Z,19.57
2022-11-13T08:07:30.759Z,12.67
2022-11-13T08:10:17.838Z,12.37
2022-11-13T08:13:05.889Z,10.43
2022-11-13T08:15:53.567Z,10.53
2022-11-13T08:18:40.009Z,11.30
2022-11-13T08:21:26.405Z,12.20
2022-11-13T08:24:12.912Z,10.63
2022-11-13T08:26:59.175Z,12.73
2022-11-13T08:29:45.857Z,11.40
2022-11-13T08:32:33.896Z,12.40
2022-11-13T08:35:23.974Z,12.97
2022-11-13T08:38:13.188Z,13.53
2022-11-13T08:41:03.268Z,13.20
2022-11-13T08:43:53.662Z,11.80
2022-11-13T08:46:40.085Z,13.87
2022-11-13T08:49:27.857Z,12.80
2022-11-13T08:52:15.446Z,16.83
2022-11-13T08:55:01.704Z,16.03
2022-11-13T08:57:48.287Z,11.93
2022-11-13T09:00:34.491Z,11.97
2022-11-13T09:03:20.848Z,12.17
2022-11-13T09:06:10.113Z,13.07
2022-11-13T09:08:56.491Z,13.40
2022-11-13T09:11:42.697Z,12.80
2022-11-13T09:14:29.338Z,12.40
2022-11-13T09:17:15.503Z,12.90
2022-11-13T09:20:04.263Z,12.43
2022-11-13T09:22:59.582Z,12.53
2022-11-13T09:25:45.732Z,12.53
2022-11-13T09:28:32.307Z,12.33
2022-11-13T09:31:18.492Z,13.20
2022-11-13T09:34:04.723Z,15.43
2022-11-13T09:36:51.292Z,16.93
2022-11-13T09:39:39.044Z,14.33
2022-11-13T09:42:30.607Z,13.77
2022-11-13T09:45:17.496Z,14.33
2022-11-13T09:48:18.922Z,12.80
2022-11-13T09:51:11.750Z,12.47
2022-11-13T09:53:59.377Z,12.67
2022-11-13T09:56:52.348Z,13.07
2022-11-13T09:59:45.067Z,13.20
2022-11-13T10:02:44.158Z,12.77
2022-11-13T10:05:40.538Z,13.60
2022-11-13T10:08:30.794Z,13.87
2022-11-13T10:11:24.443Z,16.03
2022-11-13T10:14:20.283Z,14.50
2022-11-13T10:17:14.606Z,14.73
2022-11-13T10:20:04.083Z,15.53
2022-11-13T10:22:52.455Z,14.73
2022-11-13T10:25:41.332Z,14.53
2022-11-13T10:28:49.470Z,15.17
2022-11-13T10:31:45.186Z,16.37
2022-11-13T10:34:34.186Z,16.07
2022-11-13T10:37:35.797Z,16.10
2022-11-13T10:40:26.285Z,15.27
2022-11-13T10:43:16.278Z,16.30
2022-11-13T10:46:04.581Z,16.43
2022-11-13T10:48:52.565Z,16.90
2022-11-13T10:51:39.707Z,16.00
2022-11-13T10:54:28.237Z,16.03
2022-11-13T10:57:26.379Z,16.43
2022-11-13T11:00:28.151Z,16.27
2022-11-13T11:03:16.298Z,16.03
2022-11-13T11:06:05.728Z,16.50
2022-11-13T11:08:52.335Z,17.23
2022-11-13T11:11:56.070Z,16.70
2022-11-13T11:15:04.619Z,17.23
2022-11-13T11:17:53.856Z,16.40
2022-11-13T11:20:45.968Z,15.97
2022-11-13T11:23:41.639Z,15.80
2022-11-13T11:26:33.320Z,15.60
2022-11-13T11:29:27.751Z,17.70
2022-11-13T11:32:20.980Z,17.27
2022-11-13T11:35:14.466Z,18.00
2022-11-13T11:38:06.779Z,18.43
2022-11-13T11:41:02.936Z,19.20
2022-11-13T11:43:58.261Z,19.17
2022-11-13T11:46:46.863Z,19.43
2022-11-13T11:49:33.630Z,19.37
2022-11-13T11:52:33.934Z,18.83
2022-11-13T11:55:36.665Z,19.50
2022-11-13T11:58:40.073Z,19.43
2022-11-13T12:01:40.992Z,20.27
2022-11-13T12:04:43.535Z,19.07
2022-11-13T12:07:40.983Z,20.73
2022-11-13T12:10:37.364Z,20.87
2022-11-13T12:13:31.377Z,20.70
2022-11-13T12:16:30.904Z,20.13
2022-11-13T12:19:25.732Z,20.00
2022-11-13T12:22:24.899Z,21.70
2022-11-13T12:25:22.110Z,20.33
2022-11-13T12:28:17.037Z,21.10
2022-11-13T12:31:12.432Z,20.57
2022-11-13T12:34:08.167Z,22.30
2022-11-13T12:36:55.992Z,20.97
2022-11-13T12:39:49.914Z,19.23
2022-11-13T12:42:44.154Z,18.97
2022-11-13T12:45:45.385Z,16.90
2022-11-13T12:48:36.704Z,19.30
2022-11-13T12:51:22.941Z,19.00
2022-11-13T12:54:11.477Z,19.47
2022-11-13T12:57:17.174Z,17.70
2022-11-13T13:00:23.534Z,18.83
2022-11-13T13:03:22.676Z,19.30
2022-11-13T13:06:21.538Z,19.80
2022-11-13T13:09:23.324Z,18.47
2022-11-13T13:12:18.535Z,20.67
2022-11-13T13:15:28.688Z,18.47
2022-11-13T13:18:30.871Z,19.90
2022-11-13T13:21:20.335Z,18.87
2022-11-13T13:24:31.260Z,19.63
2022-11-13T13:27:26.347Z,19.60
2022-11-13T13:30:22.225Z,20.00
2022-11-13T13:33:20.586Z,19.77
2022-11-13T13:36:21.442Z,19.70
2022-11-13T13:39:20.110Z,19.97
2022-11-13T13:42:19.660Z,21.13
2022-11-13T13:45:25.763Z,19.93
2022-11-13T13:48:14.698Z,19.50
2022-11-13T13:51:02.934Z,21.07
2022-11-13T13:53:51.108Z,20.97
2022-11-13T13:56:42.122Z,21.50
2022-11-13T13:59:33.941Z,22.00
2022-11-13T14:02:23.080Z,19.67
2022-11-13T14:05:25.672Z,22.37
2022-11-13T14:08:18.123Z,22.50
2022-11-13T14:11:17.998Z,23.63
2022-11-13T14:14:16.834Z,20.43
2022-11-13T14:17:03.867Z,21.50
2022-11-13T14:19:51.455Z,21.97
2022-11-13T14:22:38.427Z,22.90
2022-11-13T14:25:29.187Z,21.70
2022-11-13T14:28:20.046Z,22.77
2022-11-13T14:31:08.857Z,22.57
2022-11-13T14:33:55.679Z,23.80
2022-11-13T14:36:41.886Z,22.33
2022-11-13T14:39:32.421Z,23.17
2022-11-13T14:42:21.140Z,22.97
2022-11-13T14:45:17.929Z,24.00
2022-11-13T14:48:22.145Z,22.83
2022-11-13T14:51:24.028Z,25.80
2022-11-13T14:54:46.802Z,41.37
2022-11-13T14:57:35.637Z,29.50
2022-11-13T15:00:29.851Z,27.27
2022-11-13T15:03:16.345Z,24.47
2022-11-13T15:06:03.128Z,26.23
2022-11-13T15:08:51.349Z,25.57
2022-11-13T15:11:40.165Z,24.63
2022-11-13T15:14:26.340Z,26.27
2022-11-13T15:17:19.292Z,24.40
2022-11-13T15:20:09.659Z,25.93
2022-11-13T15:22:57.961Z,26.40
2022-11-13T15:25:45.602Z,27.03
2022-11-13T15:28:31.936Z,26.33
2022-11-13T15:31:20.992Z,27.17
2022-11-13T15:34:11.703Z,28.03
2022-11-13T15:36:58.188Z,27.73
2022-11-13T15:39:44.353Z,28.50
2022-11-13T15:42:34.457Z,28.20
2022-11-13T15:45:20.967Z,27.47
2022-11-13T15:48:10.337Z,26.97
2022-11-13T15:50:58.018Z,26.77
2022-11-13T15:53:45.321Z,29.20
2022-11-13T15:56:32.247Z,28.37
2022-11-13T15:59:18.881Z,39.53
2022-11-13T16:02:06.047Z,31.23
2022-11-13T16:04:57.361Z,26.70
2022-11-13T16:07:45.247Z,28.13
2022-11-13T16:10:31.587Z,30.67
2022-11-13T16:13:17.948Z,29.97
2022-11-13T16:16:04.604Z,29.90
2022-11-13T16:18:55.863Z,31.43
2022-11-13T16:21:45.288Z,30.90
2022-11-13T16:24:33.124Z,30.13
2022-11-13T16:27:26.992Z,31.67
2022-11-13T16:30:17.914Z,30.73
2022-11-13T16:33:07.875Z,30.73
2022-11-13T16:35:54.915Z,30.20
2022-11-13T16:38:41.519Z,32.10
2022-11-13T16:41:29.009Z,31.63
2022-11-13T16:44:15.194Z,33.03
2022-11-13T16:47:02.692Z,36.23
2022-11-13T16:49:50.086Z,32.47
2022-11-13T16:52:36.579Z,31.10
2022-11-13T16:55:23.614Z,31.70
2022-11-13T16:58:15.015Z,32.87
2022-11-13T17:01:01.473Z,32.87
2022-11-13T17:03:47.832Z,31.53
2022-11-13T17:06:35.883Z,30.73
2022-11-13T17:09:22.242Z,31.17
2022-11-13T17:12:08.853Z,32.27
2022-11-13T17:14:56.450Z,31.77
2022-11-13T17:17:43.065Z,30.33
2022-11-13T17:20:29.317Z,31.17
2022-11-13T17:23:15.997Z,34.67
2022-11-13T17:26:02.243Z,38.97
2022-11-13T17:28:48.768Z,35.77
2022-11-13T17:31:36.349Z,37.73
2022-11-13T17:34:23.115Z,38.57
2022-11-13T17:37:09.239Z,35.27
2022-11-13T17:39:55.851Z,35.33
2022-11-13T17:42:42.375Z,36.77
2022-11-13T17:45:28.528Z,33.10
2022-11-13T17:48:16.143Z,33.73
2022-11-13T17:51:03.826Z,34.33
2022-11-13T17:53:50.097Z,34.77
2022-11-13T17:56:37.659Z,35.50
2022-11-13T17:59:23.822Z,34.33
2022-11-13T18:02:12.340Z,33.47
2022-11-13T18:05:01.270Z,35.33
2022-11-13T18:07:47.889Z,35.83
2022-11-13T18:10:34.981Z,34.43
2022-11-13T18:13:21.439Z,34.07
2022-11-13T18:16:09.490Z,32.30
2022-11-13T18:18:58.224Z,35.53
2022-11-13T18:21:45.862Z,36.00
2022-11-13T18:24:32.084Z,35.13
2022-11-13T18:27:18.300Z,29.93
2022-11-13T18:30:05.259Z,27.47
2022-11-13T18:32:51.411Z,27.13
2022-11-13T18:35:37.700Z,26.43
2022-11-13T18:38:25.472Z,22.90
2022-11-13T18:41:13.930Z,21.03
2022-11-13T18:44:00.047Z,24.03
2022-11-13T18:46:46.654Z,21.67
2022-11-13T18:49:32.932Z,22.30
2022-11-13T18:52:19.475Z,22.03
2022-11-13T18:55:09.524Z,21.33
2022-11-13T18:57:55.944Z,21.53
2022-11-13T19:00:42.321Z,20.70
2022-11-13T19:03:29.047Z,21.60
2022-11-13T19:06:16.810Z,22.47
2022-11-13T19:09:05.647Z,21.13
2022-11-13T19:11:55.395Z,20.90
2022-11-13T19:14:41.948Z,20.37
2022-11-13T19:17:28.176Z,20.50
2022-11-13T19:20:14.674Z,20.57
2022-11-13T19:23:05.102Z,20.03
2022-11-13T19:25:54.593Z,20.07
2022-11-13T19:28:42.336Z,19.93
2022-11-13T19:31:29.127Z,19.30
2022-11-13T19:34:15.721Z,21.23
2022-11-13T19:37:02.471Z,20.83
2022-11-13T19:39:48.904Z,19.63
2022-11-13T19:42:40.767Z,20.13
2022-11-13T19:45:30.126Z,19.50
2022-11-13T19:48:18.956Z,19.47
2022-11-13T19:51:06.232Z,21.47
2022-11-13T19:53:54.426Z,20.83
2022-11-13T19:56:40.832Z,20.50
2022-11-13T19:59:27.475Z,19.93
2022-11-13T20:02:15.258Z,21.07
2022-11-13T20:05:01.879Z,20.50
2022-11-13T20:07:48.306Z,21.63
2022-11-13T20:10:34.744Z,20.77
2022-11-13T20:13:21.048Z,21.20
2022-11-13T20:16:09.350Z,21.00
2022-11-13T20:18:59.198Z,21.73
2022-11-13T20:21:45.347Z,22.00
2022-11-13T20:24:31.751Z,22.20
2022-11-13T20:27:18.071Z,22.03
2022-11-13T20:30:05.381Z,21.23
2022-11-13T20:32:51.978Z,22.83
2022-11-13T20:35:39.660Z,23.73
2022-11-13T20:38:26.101Z,24.10
2022-11-13T20:41:12.685Z,21.50
2022-11-13T20:44:03.293Z,20.57
2022-11-13T20:46:49.882Z,22.73
2022-11-13T20:49:36.104Z,22.50
2022-11-13T20:52:23.836Z,23.83
2022-11-13T20:55:10.932Z,23.07
2022-11-13T20:57:57.878Z,24.17
2022-11-13T21:00:44.503Z,22.13
2022-11-13T21:03:30.847Z,23.37
2022-11-13T21:06:18.979Z,22.90
2022-11-13T21:09:06.991Z,24.90
2022-11-13T21:11:53.586Z,24.70
2022-11-13T21:14:39.695Z,23.77
2022-11-13T21:17:26.187Z,22.73
2022-11-13T21:20:13.439Z,23.50
2022-11-13T21:23:00.040Z,22.83
2022-11-13T21:25:47.732Z,23.30
2022-11-13T21:28:34.388Z,24.10
2022-11-13T21:31:21.736Z,23.30
2022-11-13T21:34:10.508Z,23.67
2022-11-13T21:36:56.978Z,22.73
2022-11-13T21:39:43.599Z,23.13
2022-11-13T21:42:31.180Z,22.30
2022-11-13T21:45:17.999Z,23.20
2022-11-13T21:48:04.644Z,23.83
2022-11-13T21:50:50.768Z,21.30
2022-11-13T21:53:37.323Z,22.83
2022-11-13T21:56:24.166Z,22.17
2022-11-13T21:59:12.049Z,21.67
2022-11-13T22:01:58.544Z,22.63
2022-11-13T22:04:44.969Z,21.27
2022-11-13T22:07:31.275Z,19.90
2022-11-13T22:10:17.428Z,20.03
2022-11-13T22:13:04.135Z,17.73
2022-11-13T22:15:51.659Z,17.23
2022-11-13T22:18:38.155Z,17.63
2022-11-13T22:21:25.842Z,17.37
2022-11-13T22:24:13.157Z,17.73
2022-11-13T22:26:59.547Z,17.43
2022-11-13T22:29:46.120Z,17.30
2022-11-13T22:32:33.847Z,17.47
2022-11-13T22:35:20.233Z,18.07
2022-11-13T22:38:06.909Z,17.20
2022-11-13T22:40:53.637Z,18.10
2022-11-13T22:43:41.498Z,19.27
2022-11-13T22:46:29.695Z,19.60
2022-11-13T22:49:17.417Z,18.23
2022-11-13T22:52:03.905Z,19.20
2022-11-13T22:54:50.338Z,26.80
2022-11-13T22:57:36.988Z,28.23
2022-11-13T23:00:23.512Z,19.33
2022-11-13T23:03:09.769Z,18.70
2022-11-13T23:05:57.311Z,19.17
2022-11-13T23:08:44.059Z,18.53
2022-11-13T23:11:32.784Z,18.90
2022-11-13T23:14:19.388Z,18.63
2022-11-13T23:17:05.800Z,19.50
2022-11-13T23:19:51.895Z,17.93
2022-11-13T23:22:39.474Z,18.43
2022-11-13T23:25:26.070Z,18.63
2022-11-13T23:28:12.332Z,18.40
2022-11-13T23:30:59.408Z,18.97
2022-11-13T23:33:46.733Z,19.50
2022-11-13T23:36:32.959Z,17.53
2022-11-13T23:39:20.550Z,19.43
2022-11-13T23:42:07.143Z,19.27
2022-11-13T23:44:53.615Z,18.50
2022-11-13T23:47:40.140Z,24.30
2022-11-13T23:50:26.555Z,22.53
2022-11-13T23:53:12.944Z,19.60
2022-11-13T23:56:00.513Z,19.47
2022-11-13T23:58:47.194Z,19.27
